createdAt,value
2018-11-30T00:00:27.562Z,1012.86
2018-11-30T00:01:27.573Z,1012.85
2018-11-30T00:02:27.584Z,1012.87
2018-11-30T00:03:27.598Z,1012.88
2018-11-30T00:04:27.611Z,1012.83
2018-11-30T00:05:27.628Z,1012.85
2018-11-30T00:06:27.635Z,1012.94
2018-11-30T00:07:27.647Z,1012.91
2018-11-30T00:08:27.660Z,1012.97
2018-11-30T00:09:27.671Z,1012.96
2018-11-30T00:10:27.684Z,1012.95
2018-11-30T00:11:27.696Z,1012.93
2018-11-30T00:12:27.708Z,1012.92
2018-11-30T00:14:27.731Z,1012.84
2018-11-30T00:15:27.743Z,1012.8
2018-11-30T00:16:27.758Z,1012.78
2018-11-30T00:17:27.769Z,1012.75
2018-11-30T00:18:27.782Z,1012.78
2018-11-30T00:19:27.794Z,1012.73
2018-11-30T00:20:27.806Z,1012.72
2018-11-30T00:21:27.817Z,1012.7
2018-11-30T00:22:27.829Z,1012.67
2018-11-30T00:23:27.842Z,1012.69
2018-11-30T00:24:27.853Z,1012.68
2018-11-30T00:25:27.867Z,1012.66
2018-11-30T00:26:27.880Z,1012.67
2018-11-30T00:27:27.892Z,1012.69
2018-11-30T00:28:27.904Z,1012.75
2018-11-30T00:30:27.927Z,1012.66
2018-11-30T00:31:27.940Z,1012.62
2018-11-30T00:32:27.952Z,1012.66
2018-11-30T00:33:27.965Z,1012.66
2018-11-30T00:34:27.977Z,1012.61
2018-11-30T00:35:27.988Z,1012.58
2018-11-30T00:36:28.001Z,1012.6
2018-11-30T00:37:28.013Z,1012.6
2018-11-30T00:38:28.025Z,1012.64
2018-11-30T00:39:28.037Z,1012.64
2018-11-30T00:40:28.049Z,1012.57
2018-11-30T00:41:28.062Z,1012.57
2018-11-30T00:42:28.074Z,1012.55
2018-11-30T00:43:28.087Z,1012.58
2018-11-30T00:45:28.112Z,1012.49
2018-11-30T00:46:28.125Z,1012.5
2018-11-30T00:47:28.137Z,1012.58
2018-11-30T00:48:28.148Z,1012.49
2018-11-30T00:49:28.161Z,1012.57
2018-11-30T00:50:28.172Z,1012.58
2018-11-30T00:51:28.185Z,1012.55
2018-11-30T00:52:28.199Z,1012.57
2018-11-30T00:53:28.210Z,1012.59
2018-11-30T00:54:28.222Z,1012.53
2018-11-30T00:55:28.234Z,1012.48
2018-11-30T00:56:28.247Z,1012.43
2018-11-30T00:57:28.257Z,1012.43
2018-11-30T00:58:28.272Z,1012.44
2018-11-30T00:59:28.283Z,1012.43
2018-11-30T01:00:28.299Z,1012.47
2018-11-30T01:01:28.307Z,1012.46
2018-11-30T01:02:28.319Z,1012.48
2018-11-30T01:03:28.333Z,1012.48
2018-11-30T01:04:28.344Z,1012.39
2018-11-30T01:05:28.356Z,1012.36
2018-11-30T01:06:28.370Z,1012.37
2018-11-30T01:07:28.381Z,1012.33
2018-11-30T01:08:28.392Z,1012.35
2018-11-30T01:09:28.405Z,1012.36
2018-11-30T01:10:28.417Z,1012.37
2018-11-30T01:11:28.430Z,1012.39
2018-11-30T01:12:28.442Z,1012.43
2018-11-30T01:13:28.454Z,1012.48
2018-11-30T01:14:28.467Z,1012.54
2018-11-30T01:15:28.478Z,1012.49
2018-11-30T01:17:28.504Z,1012.44
2018-11-30T01:18:28.516Z,1012.43
2018-11-30T01:19:28.528Z,1012.36
2018-11-30T01:20:28.539Z,1012.29
2018-11-30T01:21:28.552Z,1012.28
2018-11-30T01:22:28.568Z,1012.28
2018-11-30T01:23:28.577Z,1012.21
2018-11-30T01:24:28.589Z,1012.24
2018-11-30T01:25:28.601Z,1012.3
2018-11-30T01:26:28.613Z,1012.23
2018-11-30T01:27:28.626Z,1012.17
2018-11-30T01:28:28.685Z,1012.11
2018-11-30T01:29:28.650Z,1012.09
2018-11-30T01:30:28.663Z,1012.06
2018-11-30T01:31:28.675Z,1012.02
2018-11-30T01:33:28.699Z,1012.04
2018-11-30T01:34:28.712Z,1011.92
2018-11-30T01:35:28.725Z,1011.88
2018-11-30T01:36:28.738Z,1011.89
2018-11-30T01:37:28.748Z,1011.97
2018-11-30T01:38:28.762Z,1011.92
2018-11-30T01:39:28.774Z,1011.88
2018-11-30T01:40:28.785Z,1011.87
2018-11-30T01:41:28.798Z,1011.91
2018-11-30T01:42:28.811Z,1011.9
2018-11-30T01:43:28.823Z,1011.89
2018-11-30T01:44:28.835Z,1011.81
2018-11-30T01:45:28.848Z,1011.81
2018-11-30T01:46:28.860Z,1011.71
2018-11-30T01:47:28.872Z,1011.72
2018-11-30T01:49:28.897Z,1011.7
2018-11-30T01:50:28.909Z,1011.63
2018-11-30T01:51:28.922Z,1011.71
2018-11-30T01:52:28.933Z,1011.7
2018-11-30T01:53:28.945Z,1011.67
2018-11-30T01:54:28.958Z,1011.7
2018-11-30T01:55:28.971Z,1011.63
2018-11-30T01:56:28.982Z,1011.58
2018-11-30T01:57:28.994Z,1011.66
2018-11-30T01:58:29.007Z,1011.6
2018-11-30T01:59:29.019Z,1011.57
2018-11-30T02:00:29.032Z,1011.51
2018-11-30T02:01:29.045Z,1011.53
2018-11-30T02:02:29.059Z,1011.5
2018-11-30T02:03:29.069Z,1011.53
2018-11-30T02:05:29.093Z,1011.45
2018-11-30T02:06:29.106Z,1011.5
2018-11-30T02:07:29.117Z,1011.51
2018-11-30T02:08:29.130Z,1011.54
2018-11-30T02:09:29.144Z,1011.46
2018-11-30T02:10:29.154Z,1011.41
2018-11-30T02:11:29.168Z,1011.42
2018-11-30T02:12:29.180Z,1011.43
2018-11-30T02:13:29.192Z,1011.49
2018-11-30T02:14:29.205Z,1011.4
2018-11-30T02:15:29.218Z,1011.47
2018-11-30T02:16:29.229Z,1011.5
2018-11-30T02:17:29.241Z,1011.48
2018-11-30T02:18:29.254Z,1011.47
2018-11-30T02:20:29.280Z,1011.46
2018-11-30T02:21:29.292Z,1011.42
2018-11-30T02:22:29.304Z,1011.39
2018-11-30T02:23:29.323Z,1011.43
2018-11-30T02:24:29.328Z,1011.43
2018-11-30T02:25:29.340Z,1011.43
2018-11-30T02:26:29.356Z,1011.47
2018-11-30T02:27:29.366Z,1011.43
2018-11-30T02:28:29.378Z,1011.41
2018-11-30T02:29:29.390Z,1011.41
2018-11-30T02:30:29.407Z,1011.47
2018-11-30T02:31:29.416Z,1011.49
2018-11-30T02:32:29.427Z,1011.37
2018-11-30T02:33:29.440Z,1011.36
2018-11-30T02:34:29.452Z,1011.36
2018-11-30T02:35:29.469Z,1011.39
2018-11-30T02:36:29.478Z,1011.43
2018-11-30T02:37:29.491Z,1011.32
2018-11-30T02:38:29.515Z,1011.28
2018-11-30T02:39:29.512Z,1011.32
2018-11-30T02:40:29.527Z,1011.31
2018-11-30T02:41:29.539Z,1011.24
2018-11-30T02:42:29.555Z,1011.26
2018-11-30T02:43:29.569Z,1011.25
2018-11-30T02:44:29.576Z,1011.25
2018-11-30T02:45:29.588Z,1011.27
2018-11-30T02:46:29.603Z,1011.3
2018-11-30T02:47:29.614Z,1011.31
2018-11-30T02:48:29.626Z,1011.31
2018-11-30T02:49:29.641Z,1011.29
2018-11-30T02:50:29.649Z,1011.35
2018-11-30T02:52:29.674Z,1011.28
2018-11-30T02:53:29.688Z,1011.27
2018-11-30T02:54:29.700Z,1011.34
2018-11-30T02:55:29.711Z,1011.24
2018-11-30T02:56:29.725Z,1011.25
2018-11-30T02:57:29.739Z,1011.27
2018-11-30T02:58:29.750Z,1011.29
2018-11-30T02:59:29.762Z,1011.27
2018-11-30T03:00:29.779Z,1011.21
2018-11-30T03:01:29.786Z,1011.23
2018-11-30T03:02:29.798Z,1011.23
2018-11-30T03:03:29.811Z,1011.15
2018-11-30T03:04:29.824Z,1011.19
2018-11-30T03:05:29.836Z,1011.21
2018-11-30T03:06:29.849Z,1011.22
2018-11-30T03:08:29.875Z,1011.2
2018-11-30T03:09:29.885Z,1011.21
2018-11-30T03:10:29.899Z,1011.25
2018-11-30T03:11:29.912Z,1011.25
2018-11-30T03:12:29.924Z,1011.26
2018-11-30T03:13:29.936Z,1011.26
2018-11-30T03:14:29.949Z,1011.3
2018-11-30T03:15:29.961Z,1011.3
2018-11-30T03:16:29.972Z,1011.35
2018-11-30T03:17:29.985Z,1011.36
2018-11-30T03:18:29.999Z,1011.38
2018-11-30T03:19:30.020Z,1011.36
2018-11-30T03:20:30.024Z,1011.41
2018-11-30T03:21:30.036Z,1011.44
2018-11-30T03:22:30.048Z,1011.4
2018-11-30T03:24:30.073Z,1011.39
2018-11-30T03:25:30.088Z,1011.37
2018-11-30T03:26:30.099Z,1011.36
2018-11-30T03:27:30.110Z,1011.38
2018-11-30T03:28:30.123Z,1011.38
2018-11-30T03:29:30.135Z,1011.31
2018-11-30T03:30:30.159Z,1011.3
2018-11-30T03:31:30.161Z,1011.24
2018-11-30T03:32:30.175Z,1011.31
2018-11-30T03:33:30.189Z,1011.27
2018-11-30T03:34:30.197Z,1011.23
2018-11-30T03:35:30.210Z,1011.22
2018-11-30T03:36:30.221Z,1011.21
2018-11-30T03:37:30.241Z,1011.18
2018-11-30T03:38:30.247Z,1011.1
2018-11-30T03:40:30.273Z,1011.13
2018-11-30T03:41:30.285Z,1011.1
2018-11-30T03:42:30.297Z,1011.07
2018-11-30T03:43:30.314Z,1011.13
2018-11-30T03:44:30.321Z,1011.12
2018-11-30T03:45:30.333Z,1011.11
2018-11-30T03:46:30.348Z,1011.13
2018-11-30T03:47:30.360Z,1011.15
2018-11-30T03:48:30.371Z,1011.14
2018-11-30T03:49:30.385Z,1011.14
2018-11-30T03:50:30.397Z,1011.17
2018-11-30T03:51:30.408Z,1011.08
2018-11-30T03:52:30.423Z,1011.06
2018-11-30T03:53:30.435Z,1011.09
2018-11-30T03:55:30.459Z,1011.06
2018-11-30T03:56:30.498Z,1011.02
2018-11-30T03:57:30.484Z,1011.04
2018-11-30T03:58:30.498Z,1011
2018-11-30T03:59:30.511Z,1010.98
2018-11-30T04:00:30.523Z,1011
2018-11-30T04:01:30.535Z,1010.92
2018-11-30T04:02:30.571Z,1010.95
2018-11-30T04:03:30.558Z,1010.96
2018-11-30T04:04:30.571Z,1011.04
2018-11-30T04:05:30.585Z,1010.99
2018-11-30T04:06:30.607Z,1011.11
2018-11-30T04:07:30.608Z,1011.1
2018-11-30T04:08:30.621Z,1011.13
2018-11-30T04:09:30.635Z,1011.12
2018-11-30T04:10:30.647Z,1011.12
2018-11-30T04:11:30.658Z,1011.1
2018-11-30T04:12:30.676Z,1011.18
2018-11-30T04:13:30.682Z,1011.16
2018-11-30T04:14:30.696Z,1011.17
2018-11-30T04:15:30.708Z,1011.12
2018-11-30T04:16:30.721Z,1011.15
2018-11-30T04:17:30.734Z,1011.03
2018-11-30T04:18:30.746Z,1011.08
2018-11-30T04:19:30.759Z,1011.04
2018-11-30T04:20:30.788Z,1011.14
2018-11-30T04:21:30.784Z,1011.09
2018-11-30T04:22:30.797Z,1011.07
2018-11-30T04:23:30.808Z,1011.08
2018-11-30T04:24:30.820Z,1011.03
2018-11-30T04:25:30.834Z,1011.01
2018-11-30T04:27:30.863Z,1010.95
2018-11-30T04:28:30.870Z,1010.94
2018-11-30T04:29:30.883Z,1010.93
2018-11-30T04:30:30.896Z,1010.94
2018-11-30T04:31:30.910Z,1010.94
2018-11-30T04:32:30.923Z,1010.91
2018-11-30T04:33:30.933Z,1010.95
2018-11-30T04:34:30.945Z,1010.98
2018-11-30T04:35:30.962Z,1010.93
2018-11-30T04:36:30.971Z,1010.93
2018-11-30T04:37:30.987Z,1010.9
2018-11-30T04:38:30.996Z,1010.87
2018-11-30T04:39:31.009Z,1010.88
2018-11-30T04:40:31.020Z,1010.86
2018-11-30T04:41:31.034Z,1010.78
2018-11-30T04:43:31.064Z,1010.75
2018-11-30T04:44:31.072Z,1010.74
2018-11-30T04:45:31.085Z,1010.74
2018-11-30T04:46:31.099Z,1010.77
2018-11-30T04:47:31.108Z,1010.75
2018-11-30T04:48:31.120Z,1010.74
2018-11-30T04:49:31.136Z,1010.7
2018-11-30T04:50:31.148Z,1010.7
2018-11-30T04:51:31.158Z,1010.69
2018-11-30T04:52:31.173Z,1010.65
2018-11-30T04:53:31.183Z,1010.66
2018-11-30T04:54:31.196Z,1010.6
2018-11-30T04:55:31.208Z,1010.64
2018-11-30T04:56:31.233Z,1010.61
2018-11-30T04:57:31.233Z,1010.59
2018-11-30T04:59:31.258Z,1010.6
2018-11-30T05:00:31.273Z,1010.58
2018-11-30T05:01:31.284Z,1010.55
2018-11-30T05:02:31.295Z,1010.59
2018-11-30T05:03:31.307Z,1010.6
2018-11-30T05:04:31.322Z,1010.58
2018-11-30T05:05:31.334Z,1010.61
2018-11-30T05:06:31.346Z,1010.59
2018-11-30T05:07:31.360Z,1010.63
2018-11-30T05:08:31.378Z,1010.67
2018-11-30T05:09:31.384Z,1010.63
2018-11-30T05:10:31.396Z,1010.64
2018-11-30T05:11:31.408Z,1010.66
2018-11-30T05:12:31.426Z,1010.63
2018-11-30T05:13:31.433Z,1010.57
2018-11-30T05:15:31.460Z,1010.61
2018-11-30T05:16:31.470Z,1010.68
2018-11-30T05:17:31.483Z,1010.68
2018-11-30T05:18:31.500Z,1010.67
2018-11-30T05:19:31.508Z,1010.71
2018-11-30T05:20:31.520Z,1010.7
2018-11-30T05:21:31.532Z,1010.66
2018-11-30T05:22:31.546Z,1010.66
2018-11-30T05:23:31.557Z,1010.67
2018-11-30T05:24:31.569Z,1010.72
2018-11-30T05:25:31.582Z,1010.7
2018-11-30T05:26:31.595Z,1010.71
2018-11-30T05:27:31.608Z,1010.71
2018-11-30T05:28:31.621Z,1010.73
2018-11-30T05:30:31.645Z,1010.69
2018-11-30T05:31:31.661Z,1010.7
2018-11-30T05:32:31.672Z,1010.68
2018-11-30T05:33:31.684Z,1010.69
2018-11-30T05:34:31.696Z,1010.68
2018-11-30T05:35:31.709Z,1010.67
2018-11-30T05:36:31.720Z,1010.69
2018-11-30T05:37:31.734Z,1010.61
2018-11-30T05:38:31.746Z,1010.66
2018-11-30T05:39:31.761Z,1010.62
2018-11-30T05:40:31.772Z,1010.63
2018-11-30T05:41:31.786Z,1010.59
2018-11-30T05:42:31.796Z,1010.66
2018-11-30T05:43:31.811Z,1010.63
2018-11-30T05:44:31.822Z,1010.55
2018-11-30T05:45:31.834Z,1010.74
2018-11-30T05:46:31.845Z,1010.64
2018-11-30T05:47:31.859Z,1010.58
2018-11-30T05:48:31.870Z,1010.56
2018-11-30T05:49:31.883Z,1010.62
2018-11-30T05:50:31.895Z,1010.65
2018-11-30T05:51:31.909Z,1010.61
2018-11-30T05:52:31.921Z,1010.64
2018-11-30T05:53:31.932Z,1010.68
2018-11-30T05:54:31.948Z,1010.78
2018-11-30T05:55:31.959Z,1010.85
2018-11-30T05:56:31.970Z,1010.82
2018-11-30T05:57:31.982Z,1010.82
2018-11-30T05:58:31.994Z,1010.82
2018-11-30T05:59:32.010Z,1010.87
2018-11-30T06:00:32.020Z,1010.78
2018-11-30T06:02:32.046Z,1010.81
2018-11-30T06:03:32.058Z,1010.84
2018-11-30T06:04:32.069Z,1010.88
2018-11-30T06:05:32.083Z,1010.87
2018-11-30T06:06:32.094Z,1010.86
2018-11-30T06:07:32.106Z,1010.87
2018-11-30T06:08:32.120Z,1010.87
2018-11-30T06:09:32.132Z,1010.89
2018-11-30T06:10:32.144Z,1010.85
2018-11-30T06:11:32.158Z,1010.87
2018-11-30T06:12:32.168Z,1010.89
2018-11-30T06:13:32.181Z,1010.93
2018-11-30T06:14:32.194Z,1010.95
2018-11-30T06:15:32.206Z,1010.91
2018-11-30T06:16:32.218Z,1010.9
2018-11-30T06:18:32.244Z,1010.89
2018-11-30T06:19:32.256Z,1010.88
2018-11-30T06:20:32.268Z,1010.84
2018-11-30T06:21:32.281Z,1010.81
2018-11-30T06:22:32.291Z,1010.79
2018-11-30T06:23:32.305Z,1010.79
2018-11-30T06:24:32.319Z,1010.73
2018-11-30T06:25:32.330Z,1010.71
2018-11-30T06:26:32.341Z,1010.8
2018-11-30T06:27:32.355Z,1010.82
2018-11-30T06:28:32.368Z,1010.77
2018-11-30T06:29:33.462Z,1010.76
2018-11-30T06:30:32.392Z,1010.79
2018-11-30T06:31:32.407Z,1010.71
2018-11-30T06:32:32.417Z,1010.83
2018-11-30T06:34:32.442Z,1010.8
2018-11-30T06:35:32.454Z,1010.81
2018-11-30T06:37:32.483Z,1010.84
2018-11-30T06:38:32.490Z,1010.87
2018-11-30T06:39:32.505Z,1010.83
2018-11-30T06:40:32.517Z,1010.83
2018-11-30T06:41:32.528Z,1010.8
2018-11-30T06:42:32.542Z,1010.86
2018-11-30T06:43:32.553Z,1010.82
2018-11-30T06:44:32.566Z,1010.84
2018-11-30T06:45:32.579Z,1010.84
2018-11-30T06:46:32.592Z,1010.87
2018-11-30T06:47:32.604Z,1010.89
2018-11-30T06:48:32.616Z,1010.87
2018-11-30T06:50:32.641Z,1010.88
2018-11-30T06:51:32.653Z,1010.88
2018-11-30T06:52:32.666Z,1010.9
2018-11-30T06:53:32.678Z,1010.84
2018-11-30T06:54:32.691Z,1010.99
2018-11-30T06:55:32.804Z,1010.93
2018-11-30T06:56:32.716Z,1010.88
2018-11-30T06:57:32.728Z,1010.93
2018-11-30T06:58:32.753Z,1010.85
2018-11-30T06:59:32.753Z,1010.89
2018-11-30T07:00:32.765Z,1010.91
2018-11-30T07:01:32.778Z,1010.9
2018-11-30T07:02:32.791Z,1010.9
2018-11-30T07:03:32.804Z,1010.92
2018-11-30T07:05:32.831Z,1010.91
2018-11-30T07:06:32.842Z,1011.01
2018-11-30T07:07:32.854Z,1010.98
2018-11-30T07:08:32.868Z,1011.01
2018-11-30T07:09:32.886Z,1011.01
2018-11-30T07:10:32.891Z,1011.01
2018-11-30T07:11:32.905Z,1010.97
2018-11-30T07:12:32.918Z,1011
2018-11-30T07:13:32.931Z,1010.99
2018-11-30T07:14:32.942Z,1011.01
2018-11-30T07:15:32.955Z,1011.03
2018-11-30T07:16:32.967Z,1011.04
2018-11-30T07:17:32.979Z,1011.06
2018-11-30T07:18:32.993Z,1011.04
2018-11-30T07:19:33.007Z,1011.06
2018-11-30T07:20:33.018Z,1011.07
2018-11-30T07:21:33.031Z,1011.12
2018-11-30T07:22:33.046Z,1011.12
2018-11-30T07:23:33.058Z,1011.12
2018-11-30T07:24:33.068Z,1011.1
2018-11-30T07:25:33.081Z,1011.08
2018-11-30T07:26:33.093Z,1011.11
2018-11-30T07:27:33.107Z,1011.08
2018-11-30T07:28:33.119Z,1011.11
2018-11-30T07:29:33.131Z,1011.08
2018-11-30T07:30:33.144Z,1011.12
2018-11-30T07:31:33.158Z,1011.1
2018-11-30T07:32:33.178Z,1011.08
2018-11-30T07:33:33.182Z,1011.07
2018-11-30T07:34:33.198Z,1011.09
2018-11-30T07:35:33.208Z,1011.05
2018-11-30T07:37:33.424Z,1011.04
2018-11-30T07:38:33.246Z,1011.07
2018-11-30T07:39:33.257Z,1011.08
2018-11-30T07:40:33.270Z,1011.1
2018-11-30T07:41:33.284Z,1011.12
2018-11-30T07:42:33.297Z,1011.12
2018-11-30T07:43:33.308Z,1011.16
2018-11-30T07:44:33.321Z,1011.14
2018-11-30T07:45:33.334Z,1011.17
2018-11-30T07:46:33.345Z,1011.21
2018-11-30T07:47:33.359Z,1011.22
2018-11-30T07:48:33.372Z,1011.23
2018-11-30T07:49:33.384Z,1011.27
2018-11-30T07:50:33.396Z,1011.23
2018-11-30T07:51:33.409Z,1011.24
2018-11-30T07:53:33.435Z,1011.22
2018-11-30T07:54:33.448Z,1011.28
2018-11-30T07:55:33.459Z,1011.3
2018-11-30T07:56:33.473Z,1011.33
2018-11-30T07:57:33.485Z,1011.33
2018-11-30T07:58:33.498Z,1011.33
2018-11-30T07:59:33.513Z,1011.32
2018-11-30T08:00:33.526Z,1011.4
2018-11-30T08:01:33.538Z,1011.4
2018-11-30T08:02:33.552Z,1011.34
2018-11-30T08:03:33.563Z,1011.36
2018-11-30T08:04:33.575Z,1011.36
2018-11-30T08:05:33.588Z,1011.3
2018-11-30T08:06:33.601Z,1011.35
2018-11-30T08:07:33.613Z,1011.33
2018-11-30T08:09:33.638Z,1011.35
2018-11-30T08:10:33.650Z,1011.31
2018-11-30T08:11:33.665Z,1011.25
2018-11-30T08:12:33.676Z,1011.3
2018-11-30T08:13:33.689Z,1011.29
2018-11-30T08:14:33.702Z,1011.31
2018-11-30T08:15:33.716Z,1011.31
2018-11-30T08:16:33.727Z,1011.28
2018-11-30T08:17:33.741Z,1011.28
2018-11-30T08:18:33.753Z,1011.3
2018-11-30T08:19:33.765Z,1011.33
2018-11-30T08:20:33.779Z,1011.31
2018-11-30T08:21:33.793Z,1011.27
2018-11-30T08:22:33.804Z,1011.26
2018-11-30T08:23:33.818Z,1011.31
2018-11-30T08:25:33.842Z,1011.25
2018-11-30T08:26:33.855Z,1011.27
2018-11-30T08:27:33.868Z,1011.24
2018-11-30T08:28:33.882Z,1011.3
2018-11-30T08:29:33.895Z,1011.29
2018-11-30T08:30:33.906Z,1011.26
2018-11-30T08:31:33.919Z,1011.27
2018-11-30T08:32:33.934Z,1011.28
2018-11-30T08:33:33.946Z,1011.23
2018-11-30T08:34:33.958Z,1011.21
2018-11-30T08:35:33.971Z,1011.22
2018-11-30T08:36:33.984Z,1011.19
2018-11-30T08:37:33.997Z,1011.23
2018-11-30T08:38:34.010Z,1011.2
2018-11-30T08:40:34.037Z,1011.14
2018-11-30T08:41:34.049Z,1011.12
2018-11-30T08:42:34.064Z,1011.13
2018-11-30T08:43:34.076Z,1011.13
2018-11-30T08:44:34.089Z,1011.14
2018-11-30T08:45:34.102Z,1011.13
2018-11-30T08:46:34.116Z,1011.14
2018-11-30T08:47:34.129Z,1011.16
2018-11-30T08:48:34.141Z,1011.18
2018-11-30T08:49:34.154Z,1011.13
2018-11-30T08:50:34.166Z,1011.13
2018-11-30T08:51:34.180Z,1011.09
2018-11-30T08:52:34.193Z,1010.99
2018-11-30T08:53:34.207Z,1011.06
2018-11-30T08:54:34.222Z,1011.1
2018-11-30T08:55:34.232Z,1011.1
2018-11-30T08:56:34.245Z,1011.06
2018-11-30T08:57:34.259Z,1011.04
2018-11-30T08:58:34.273Z,1011.04
2018-11-30T08:59:34.287Z,1010.97
2018-11-30T09:00:34.301Z,1011.07
2018-11-30T09:01:34.312Z,1011.01
2018-11-30T09:02:34.330Z,1010.97
2018-11-30T09:03:34.342Z,1010.97
2018-11-30T09:04:34.349Z,1011.01
2018-11-30T09:05:34.364Z,1011.01
2018-11-30T09:06:34.378Z,1011.01
2018-11-30T09:07:34.390Z,1011.04
2018-11-30T09:08:34.403Z,1011.06
2018-11-30T09:09:34.416Z,1011.06
2018-11-30T09:10:34.429Z,1011.03
2018-11-30T09:12:34.454Z,1011.05
2018-11-30T09:13:34.468Z,1011.02
2018-11-30T09:14:34.480Z,1011.06
2018-11-30T09:15:34.494Z,1011.08
2018-11-30T09:16:34.508Z,1011.08
2018-11-30T09:17:34.522Z,1011.06
2018-11-30T09:18:34.550Z,1011.02
2018-11-30T09:19:34.547Z,1011.06
2018-11-30T09:20:34.559Z,1010.96
2018-11-30T09:21:34.573Z,1011.02
2018-11-30T09:22:34.585Z,1010.98
2018-11-30T09:23:34.599Z,1011.01
2018-11-30T09:24:34.611Z,1011.02
2018-11-30T09:25:34.625Z,1010.99
2018-11-30T09:26:34.638Z,1011.04
2018-11-30T09:28:34.665Z,1011.08
2018-11-30T09:29:34.678Z,1011.08
2018-11-30T09:30:34.691Z,1011.06
2018-11-30T09:31:34.703Z,1011.05
2018-11-30T09:32:34.716Z,1011.09
2018-11-30T09:33:34.730Z,1011.06
2018-11-30T09:34:34.744Z,1011.09
2018-11-30T09:35:34.758Z,1011.02
2018-11-30T09:36:34.770Z,1010.99
2018-11-30T09:37:34.782Z,1011.04
2018-11-30T09:38:34.795Z,1011.04
2018-11-30T09:39:34.810Z,1011.01
2018-11-30T09:40:34.824Z,1010.98
2018-11-30T09:41:34.835Z,1010.97
2018-11-30T09:42:34.850Z,1010.98
2018-11-30T09:44:34.876Z,1010.98
2018-11-30T09:45:34.891Z,1010.92
2018-11-30T09:46:34.901Z,1010.89
2018-11-30T09:47:34.916Z,1010.93
2018-11-30T09:48:34.931Z,1010.91
2018-11-30T09:49:35.043Z,1010.9
2018-11-30T09:50:34.956Z,1010.92
2018-11-30T09:51:34.968Z,1010.92
2018-11-30T09:52:34.990Z,1010.92
2018-11-30T09:53:34.998Z,1010.94
2018-11-30T09:54:35.006Z,1010.95
2018-11-30T09:55:35.021Z,1010.92
2018-11-30T09:56:35.036Z,1010.94
2018-11-30T09:57:35.048Z,1010.96
2018-11-30T09:58:35.061Z,1010.93
2018-11-30T10:00:35.086Z,1010.99
2018-11-30T10:01:35.101Z,1010.95
2018-11-30T10:02:35.113Z,1010.99
2018-11-30T10:03:35.127Z,1011.02
2018-11-30T10:04:35.140Z,1010.99
2018-11-30T10:05:35.152Z,1010.98
2018-11-30T10:06:35.167Z,1011.03
2018-11-30T10:07:35.179Z,1011.04
2018-11-30T10:08:35.193Z,1011.03
2018-11-30T10:09:35.207Z,1011.06
2018-11-30T10:10:35.219Z,1010.99
2018-11-30T10:11:35.231Z,1011.01
2018-11-30T10:12:35.248Z,1011.01
2018-11-30T10:13:35.260Z,1011.07
2018-11-30T10:15:35.287Z,1011.02
2018-11-30T10:16:35.299Z,1011
2018-11-30T10:17:35.313Z,1011.05
2018-11-30T10:18:35.327Z,1011.03
2018-11-30T10:19:35.341Z,1011
2018-11-30T10:20:35.354Z,1010.99
2018-11-30T10:21:35.368Z,1010.93
2018-11-30T10:22:35.381Z,1010.98
2018-11-30T10:23:35.494Z,1010.99
2018-11-30T10:24:35.407Z,1010.97
2018-11-30T10:25:35.421Z,1011.01
2018-11-30T10:26:35.434Z,1010.95
2018-11-30T10:27:35.447Z,1010.93
2018-11-30T10:28:35.461Z,1010.95
2018-11-30T10:29:35.476Z,1010.91
2018-11-30T10:30:35.489Z,1010.89
2018-11-30T10:31:35.501Z,1010.94
2018-11-30T10:32:35.516Z,1010.95
2018-11-30T10:33:35.529Z,1010.91
2018-11-30T10:34:35.541Z,1010.93
2018-11-30T10:35:35.554Z,1010.94
2018-11-30T10:36:35.570Z,1010.93
2018-11-30T10:37:35.584Z,1010.95
2018-11-30T10:38:35.598Z,1010.92
2018-11-30T10:39:35.609Z,1010.95
2018-11-30T10:40:35.622Z,1010.92
2018-11-30T10:41:35.637Z,1010.95
2018-11-30T10:42:35.649Z,1010.96
2018-11-30T10:43:35.703Z,1010.98
2018-11-30T10:44:35.677Z,1011.01
2018-11-30T10:45:35.689Z,1010.99
2018-11-30T10:47:35.716Z,1010.92
2018-11-30T10:48:35.729Z,1010.92
2018-11-30T10:49:35.742Z,1010.93
2018-11-30T10:50:35.757Z,1010.88
2018-11-30T10:51:35.771Z,1010.82
2018-11-30T10:52:35.788Z,1010.88
2018-11-30T10:53:35.798Z,1010.84
2018-11-30T10:54:35.810Z,1010.87
2018-11-30T10:55:35.824Z,1010.79
2018-11-30T10:56:35.837Z,1010.82
2018-11-30T10:57:35.850Z,1010.84
2018-11-30T10:58:35.864Z,1010.81
2018-11-30T10:59:35.878Z,1010.78
2018-11-30T11:00:35.890Z,1010.78
2018-11-30T11:01:35.904Z,1010.74
2018-11-30T11:03:35.930Z,1010.72
2018-11-30T11:04:35.943Z,1010.73
2018-11-30T11:05:35.956Z,1010.67
2018-11-30T11:06:35.970Z,1010.66
2018-11-30T11:07:35.984Z,1010.67
2018-11-30T11:08:35.997Z,1010.66
2018-11-30T11:09:36.012Z,1010.76
2018-11-30T11:10:36.027Z,1010.7
2018-11-30T11:11:36.036Z,1010.71
2018-11-30T11:12:36.051Z,1010.73
2018-11-30T11:13:36.064Z,1010.67
2018-11-30T11:14:36.078Z,1010.66
2018-11-30T11:15:36.090Z,1010.64
2018-11-30T11:16:36.107Z,1010.7
2018-11-30T11:17:36.120Z,1010.69
2018-11-30T11:19:36.144Z,1010.66
2018-11-30T11:20:36.156Z,1010.64
2018-11-30T11:21:36.176Z,1010.61
2018-11-30T11:22:36.185Z,1010.61
2018-11-30T11:23:36.198Z,1010.63
2018-11-30T11:24:36.211Z,1010.61
2018-11-30T11:25:36.225Z,1010.6
2018-11-30T11:26:36.237Z,1010.55
2018-11-30T11:27:36.251Z,1010.59
2018-11-30T11:28:36.263Z,1010.63
2018-11-30T11:29:36.275Z,1010.56
2018-11-30T11:30:36.290Z,1010.57
2018-11-30T11:31:36.302Z,1010.56
2018-11-30T11:32:36.318Z,1010.57
2018-11-30T11:33:36.328Z,1010.55
2018-11-30T11:35:36.363Z,1010.59
2018-11-30T11:36:36.369Z,1010.55
2018-11-30T11:37:36.382Z,1010.56
2018-11-30T11:38:36.398Z,1010.53
2018-11-30T11:39:36.409Z,1010.47
2018-11-30T11:40:36.422Z,1010.49
2018-11-30T11:41:36.436Z,1010.42
2018-11-30T11:42:36.449Z,1010.46
2018-11-30T11:43:36.463Z,1010.47
2018-11-30T11:44:36.476Z,1010.5
2018-11-30T11:45:36.488Z,1010.45
2018-11-30T11:46:36.502Z,1010.49
2018-11-30T11:47:36.515Z,1010.46
2018-11-30T11:48:36.529Z,1010.5
2018-11-30T11:50:36.556Z,1010.47
2018-11-30T11:51:36.567Z,1010.49
2018-11-30T11:52:36.581Z,1010.48
2018-11-30T11:53:36.601Z,1010.5
2018-11-30T11:54:36.608Z,1010.51
2018-11-30T11:55:36.620Z,1010.5
2018-11-30T11:56:36.633Z,1010.5
2018-11-30T11:57:36.648Z,1010.51
2018-11-30T11:58:36.663Z,1010.54
2018-11-30T11:59:36.677Z,1010.54
2018-11-30T12:00:36.685Z,1010.56
2018-11-30T12:01:36.699Z,1010.56
2018-11-30T12:02:36.714Z,1010.56
2018-11-30T12:03:36.725Z,1010.55
2018-11-30T12:04:36.739Z,1010.55
2018-11-30T12:05:36.752Z,1010.57
2018-11-30T12:06:36.967Z,1010.56
2018-11-30T12:07:36.778Z,1010.58
2018-11-30T12:08:36.792Z,1010.55
2018-11-30T12:09:36.803Z,1010.56
2018-11-30T12:10:36.816Z,1010.57
2018-11-30T12:11:36.829Z,1010.54
2018-11-30T12:12:36.843Z,1010.54
2018-11-30T12:13:36.857Z,1010.52
2018-11-30T12:14:36.870Z,1010.55
2018-11-30T12:15:36.884Z,1010.53
2018-11-30T12:16:36.897Z,1010.57
2018-11-30T12:17:36.910Z,1010.56
2018-11-30T12:18:36.923Z,1010.54
2018-11-30T12:19:36.935Z,1010.52
2018-11-30T12:20:36.948Z,1010.56
2018-11-30T12:22:36.976Z,1010.55
2018-11-30T12:23:36.994Z,1010.54
2018-11-30T12:24:37.002Z,1010.59
2018-11-30T12:25:37.014Z,1010.56
2018-11-30T12:26:37.031Z,1010.52
2018-11-30T12:27:37.043Z,1010.59
2018-11-30T12:28:37.055Z,1010.54
2018-11-30T12:29:37.068Z,1010.52
2018-11-30T12:30:37.081Z,1010.54
2018-11-30T12:31:37.095Z,1010.52
2018-11-30T12:32:37.108Z,1010.54
2018-11-30T12:33:37.123Z,1010.54
2018-11-30T12:34:37.140Z,1010.52
2018-11-30T12:35:37.150Z,1010.55
2018-11-30T12:36:37.167Z,1010.54
2018-11-30T12:38:37.189Z,1010.52
2018-11-30T12:39:37.202Z,1010.53
2018-11-30T12:40:37.216Z,1010.51
2018-11-30T12:41:37.230Z,1010.52
2018-11-30T12:42:37.242Z,1010.53
2018-11-30T12:43:37.256Z,1010.52
2018-11-30T12:44:37.268Z,1010.57
2018-11-30T12:45:37.282Z,1010.53
2018-11-30T12:46:37.294Z,1010.52
2018-11-30T12:47:37.310Z,1010.49
2018-11-30T12:48:37.323Z,1010.52
2018-11-30T12:49:37.336Z,1010.51